createdAt,value
2022-11-03T08:29:47.928Z,1013.70
2022-11-03T08:30:47.792Z,1013.76
2022-11-03T08:31:47.745Z,1013.72
2022-11-03T08:32:47.766Z,1013.68
2022-11-03T08:33:47.734Z,1013.66
2022-11-03T08:34:47.718Z,1013.64
2022-11-03T08:35:47.720Z,1013.59
2022-11-03T08:36:47.784Z,1013.56
2022-11-03T08:37:47.703Z,1013.56
2022-11-03T08:38:47.684Z,1013.56
2022-11-03T08:39:47.700Z,1013.61
2022-11-03T08:40:51.372Z,1013.50
2022-11-03T08:41:48.637Z,1013.56
2022-11-03T08:42:47.639Z,1013.48
2022-11-03T08:43:47.641Z,1013.56
2022-11-03T08:44:47.645Z,1013.58
2022-11-03T08:45:47.634Z,1013.58
2022-11-03T08:46:47.591Z,1013.56
2022-11-03T08:47:47.583Z,1013.55
2022-11-03T08:48:47.605Z,1013.53
2022-11-03T08:49:47.566Z,1013.55
2022-11-03T08:50:47.548Z,1013.58
2022-11-03T08:51:47.554Z,1013.50
2022-11-03T08:52:47.531Z,1013.43
2022-11-03T08:53:47.543Z,1013.45
2022-11-03T08:54:47.539Z,1013.45
2022-11-03T08:55:47.490Z,1013.49
2022-11-03T08:56:47.509Z,1013.40
2022-11-03T08:57:47.484Z,1013.38
2022-11-03T08:58:47.466Z,1013.46
2022-11-03T08:59:47.446Z,1013.42
2022-11-03T09:00:47.450Z,1013.47
2022-11-03T09:01:47.503Z,1013.46
2022-11-03T09:02:47.432Z,1013.41
2022-11-03T09:03:47.576Z,1013.42
2022-11-03T09:04:47.391Z,1013.41
2022-11-03T09:05:47.385Z,1013.40
2022-11-03T09:06:47.402Z,1013.30
2022-11-03T09:10:48.329Z,1013.30
2022-11-03T09:11:47.361Z,1013.31
2022-11-03T09:12:47.317Z,1013.26
2022-11-03T09:13:47.320Z,1013.28
2022-11-03T09:14:47.298Z,1013.23
2022-11-03T09:15:47.297Z,1013.25
2022-11-03T09:16:47.277Z,1013.22
2022-11-03T09:17:47.351Z,1013.13
2022-11-03T09:18:47.258Z,1013.20
2022-11-03T09:19:47.246Z,1013.13
2022-11-03T09:20:47.252Z,1013.07
2022-11-03T09:21:47.263Z,1013.10
2022-11-03T09:22:47.206Z,1013.06
2022-11-03T09:23:47.194Z,1013.07
2022-11-03T09:24:47.199Z,1012.98
2022-11-03T09:25:47.195Z,1013.10
2022-11-03T09:26:47.205Z,1012.99
2022-11-03T09:27:47.158Z,1012.97
2022-11-03T09:28:47.156Z,1012.97
2022-11-03T09:30:11.569Z,1013.03
2022-11-03T09:30:48.181Z,1012.97
2022-11-03T09:31:47.135Z,1013.01
2022-11-03T09:32:47.104Z,1013.04
2022-11-03T09:33:47.101Z,1012.99
2022-11-03T09:34:47.075Z,1013.00
2022-11-03T09:35:47.120Z,1012.93
2022-11-03T09:36:52.993Z,1012.98
2022-11-03T09:37:48.044Z,1012.90
2022-11-03T09:38:47.045Z,1012.88
2022-11-03T09:39:47.035Z,1012.87
2022-11-03T09:41:57.994Z,1012.83
2022-11-03T09:42:48.014Z,1012.81
2022-11-03T09:43:47.001Z,1012.76
2022-11-03T09:44:46.962Z,1012.77
2022-11-03T09:45:46.969Z,1012.70
2022-11-03T09:46:46.956Z,1012.70
2022-11-03T09:47:46.954Z,1012.71
2022-11-03T09:48:46.936Z,1012.75
2022-11-03T09:49:46.932Z,1012.66
2022-11-03T09:50:46.902Z,1012.67
2022-11-03T09:51:46.900Z,1012.66
2022-11-03T09:52:51.296Z,1012.66
2022-11-03T09:53:46.890Z,1012.60
2022-11-03T09:54:46.866Z,1012.62
2022-11-03T09:55:46.898Z,1012.64
2022-11-03T09:56:46.850Z,1012.47
2022-11-03T09:57:46.848Z,1012.49
2022-11-03T09:58:51.384Z,1012.51
2022-11-03T09:59:47.802Z,1012.53
2022-11-03T10:00:46.898Z,1012.45
2022-11-03T10:01:47.066Z,1012.49
2022-11-03T10:02:46.769Z,1012.46
2022-11-03T10:03:46.781Z,1012.46
2022-11-03T10:04:46.745Z,1012.45
2022-11-03T10:05:46.772Z,1012.41
2022-11-03T10:06:46.753Z,1012.47
2022-11-03T10:07:46.802Z,1012.46
2022-11-03T10:08:46.735Z,1012.43
2022-11-03T10:09:46.718Z,1012.40
2022-11-03T10:10:47.961Z,1012.34
2022-11-03T10:12:03.269Z,1012.37
2022-11-03T10:12:46.696Z,1012.33
2022-11-03T10:13:46.657Z,1012.33
2022-11-03T10:14:46.685Z,1012.34
2022-11-03T10:15:46.647Z,1012.23
2022-11-03T10:16:52.323Z,1012.33
2022-11-03T10:17:47.620Z,1012.35
2022-11-03T10:18:46.605Z,1012.28
2022-11-03T10:19:46.640Z,1012.26
2022-11-03T10:20:46.600Z,1012.26
2022-11-03T10:21:46.590Z,1012.26
2022-11-03T10:22:46.579Z,1012.28
2022-11-03T10:23:46.548Z,1012.20
2022-11-03T10:24:46.535Z,1012.18
2022-11-03T10:25:46.551Z,1012.15
2022-11-03T10:26:46.515Z,1012.18
2022-11-03T10:27:46.511Z,1012.09
2022-11-03T10:28:46.505Z,1011.99
2022-11-03T10:29:52.123Z,1012.03
2022-11-03T10:31:09.976Z,1011.98
2022-11-03T10:31:47.465Z,1012.02
2022-11-03T10:32:46.453Z,1012.01
2022-11-03T10:33:46.447Z,1011.95
2022-11-03T10:34:46.446Z,1011.94
2022-11-03T10:35:46.423Z,1011.99
2022-11-03T10:36:50.437Z,1011.99
2022-11-03T10:37:46.433Z,1011.92
2022-11-03T10:38:46.395Z,1011.95
2022-11-03T10:39:46.386Z,1011.91
2022-11-03T10:40:48.340Z,1011.95
2022-11-03T10:41:46.367Z,1011.96
2022-11-03T10:42:46.344Z,1011.91
2022-11-03T10:43:46.349Z,1011.88
2022-11-03T10:44:46.334Z,1011.89
2022-11-03T10:45:46.315Z,1011.80
2022-11-03T10:46:50.978Z,1011.87
2022-11-03T10:47:47.327Z,1011.86
2022-11-03T10:48:46.300Z,1011.85
2022-11-03T10:49:46.278Z,1011.88
2022-11-03T10:50:46.260Z,1011.83
2022-11-03T10:51:46.275Z,1011.81
2022-11-03T10:52:46.243Z,1011.78
2022-11-03T10:53:46.279Z,1011.76
2022-11-03T10:54:46.227Z,1011.73
2022-11-03T10:55:46.213Z,1011.73
2022-11-03T10:56:46.282Z,1011.75
2022-11-03T10:57:50.550Z,1011.71
2022-11-03T10:58:47.230Z,1011.69
2022-11-03T10:59:46.168Z,1011.68
2022-11-03T11:00:46.257Z,1011.65
2022-11-03T11:01:46.339Z,1011.59
2022-11-03T11:02:46.124Z,1011.64
2022-11-03T11:03:46.202Z,1011.55
2022-11-03T11:04:46.184Z,1011.56
2022-11-03T11:05:46.123Z,1011.53
2022-11-03T11:06:46.206Z,1011.62
2022-11-03T11:07:54.692Z,1011.60
2022-11-03T11:08:59.654Z,1011.62
2022-11-03T11:09:47.072Z,1011.58
2022-11-03T11:10:55.897Z,1011.55
2022-11-03T11:11:53.944Z,1011.55
2022-11-03T11:12:46.048Z,1011.54
2022-11-03T11:13:46.040Z,1011.55
2022-11-03T11:14:46.003Z,1011.52
2022-11-03T11:15:45.995Z,1011.46
2022-11-03T11:16:46.032Z,1011.45
2022-11-03T11:17:45.986Z,1011.43
2022-11-03T11:18:45.969Z,1011.37
2022-11-03T11:19:45.945Z,1011.37
2022-11-03T11:20:45.932Z,1011.39
2022-11-03T11:21:45.931Z,1011.36
2022-11-03T11:22:45.955Z,1011.34
2022-11-03T11:23:45.945Z,1011.36
2022-11-03T11:24:45.918Z,1011.33
2022-11-03T11:25:45.892Z,1011.31
2022-11-03T11:26:45.870Z,1011.21
2022-11-03T11:27:45.885Z,1011.22
2022-11-03T11:28:45.851Z,1011.22
2022-11-03T11:29:45.853Z,1011.25
2022-11-03T11:30:45.833Z,1011.21
2022-11-03T11:31:45.834Z,1011.21
2022-11-03T11:32:45.838Z,1011.24
2022-11-03T11:33:45.805Z,1011.26
2022-11-03T11:34:45.790Z,1011.21
2022-11-03T11:35:45.777Z,1011.23
2022-11-03T11:36:45.777Z,1011.18
2022-11-03T11:37:45.793Z,1011.12
2022-11-03T11:38:45.755Z,1011.15
2022-11-03T11:39:45.750Z,1011.19
2022-11-03T11:40:45.734Z,1011.12
2022-11-03T11:41:45.732Z,1011.16
2022-11-03T11:42:45.698Z,1011.07
2022-11-03T11:43:45.714Z,1011.07
2022-11-03T11:44:45.678Z,1011.09
2022-11-03T11:45:45.684Z,1011.01
2022-11-03T11:46:45.683Z,1011.05
2022-11-03T11:47:45.660Z,1010.98
2022-11-03T11:48:45.657Z,1010.96
2022-11-03T11:49:45.628Z,1010.98
2022-11-03T11:50:45.640Z,1010.89
2022-11-03T11:51:45.667Z,1010.86
2022-11-03T11:52:45.601Z,1010.85
2022-11-03T11:53:48.169Z,1010.75
2022-11-03T11:54:46.579Z,1010.73
2022-11-03T11:55:45.605Z,1010.77
2022-11-03T11:56:45.602Z,1010.79
2022-11-03T11:57:45.562Z,1010.70
2022-11-03T11:58:45.537Z,1010.69
2022-11-03T11:59:45.514Z,1010.70
2022-11-03T12:00:45.588Z,1010.67
2022-11-03T12:01:45.579Z,1010.64
2022-11-03T12:02:45.484Z,1010.63
2022-11-03T12:03:45.550Z,1010.69
2022-11-03T12:04:45.480Z,1010.74
2022-11-03T12:05:45.496Z,1010.72
2022-11-03T12:07:45.442Z,1010.68
2022-11-03T12:08:45.420Z,1010.70
2022-11-03T12:09:45.424Z,1010.68
2022-11-03T12:10:45.527Z,1010.68
2022-11-03T12:11:46.117Z,1010.67
2022-11-03T12:12:45.412Z,1010.65
2022-11-03T12:13:45.376Z,1010.64
2022-11-03T12:14:45.352Z,1010.68
2022-11-03T12:15:45.374Z,1010.56
2022-11-03T12:16:45.349Z,1010.58
2022-11-03T12:17:45.353Z,1010.59
2022-11-03T12:18:50.362Z,1010.52
2022-11-03T12:19:46.309Z,1010.54
2022-11-03T12:21:58.806Z,1010.48
2022-11-03T12:23:06.279Z,1010.46
2022-11-03T12:23:58.710Z,1010.43
2022-11-03T12:24:58.674Z,1010.43
2022-11-03T12:25:58.636Z,1010.36
2022-11-03T12:26:58.681Z,1010.33
2022-11-03T12:27:58.620Z,1010.31
2022-11-03T12:28:58.598Z,1010.36
2022-11-03T12:29:58.610Z,1010.32
2022-11-03T12:31:58.594Z,1010.30
2022-11-03T12:32:58.544Z,1010.30
2022-11-03T12:33:58.547Z,1010.30
2022-11-03T12:34:58.584Z,1010.31
2022-11-03T12:35:58.524Z,1010.23
2022-11-03T12:36:58.511Z,1010.23
2022-11-03T12:37:58.493Z,1010.29
2022-11-03T12:38:58.510Z,1010.25
2022-11-03T12:39:58.487Z,1010.28
2022-11-03T12:40:58.486Z,1010.23
2022-11-03T12:41:58.462Z,1010.19
2022-11-03T12:42:58.453Z,1010.14
2022-11-03T12:43:58.532Z,1010.18
2022-11-03T12:44:58.446Z,1010.16
2022-11-03T12:45:58.418Z,1010.11
2022-11-03T12:46:58.419Z,1010.08
2022-11-03T12:47:58.426Z,1010.08
2022-11-03T12:48:58.374Z,1010.03
2022-11-03T12:49:58.368Z,1010.06
2022-11-03T12:50:58.383Z,1010.13
2022-11-03T12:51:58.424Z,1010.03
2022-11-03T12:52:58.350Z,1009.99
2022-11-03T12:53:58.333Z,1010.02
2022-11-03T12:54:58.329Z,1009.98
2022-11-03T12:55:58.347Z,1009.92
2022-11-03T12:56:58.302Z,1009.96
2022-11-03T12:57:58.282Z,1009.97
2022-11-03T12:58:58.291Z,1009.92
2022-11-03T12:59:58.272Z,1009.86
2022-11-03T13:01:01.879Z,1009.93
2022-11-03T13:01:58.418Z,1009.87
2022-11-03T13:02:58.307Z,1009.92
2022-11-03T13:03:58.215Z,1009.88
2022-11-03T13:04:58.237Z,1009.90
2022-11-03T13:05:58.193Z,1009.87
2022-11-03T13:06:58.181Z,1009.89
2022-11-03T13:07:58.199Z,1009.94
2022-11-03T13:08:58.159Z,1009.88
2022-11-03T13:09:58.167Z,1009.88
2022-11-03T13:10:58.140Z,1009.86
2022-11-03T13:11:58.167Z,1009.86
2022-11-03T13:12:58.152Z,1009.80
2022-11-03T13:13:58.113Z,1009.78
2022-11-03T13:14:58.095Z,1009.72
2022-11-03T13:15:58.101Z,1009.71
2022-11-03T13:16:58.093Z,1009.68
2022-11-03T13:18:12.865Z,1009.59
2022-11-03T13:18:59.067Z,1009.60
2022-11-03T13:19:58.157Z,1009.58
2022-11-03T13:20:58.048Z,1009.60
2022-11-03T13:21:58.065Z,1009.54
2022-11-03T13:22:58.031Z,1009.52
2022-11-03T13:23:58.021Z,1009.47
2022-11-03T13:24:58.047Z,1009.44
2022-11-03T13:25:58.105Z,1009.40
2022-11-03T13:26:57.966Z,1009.34
2022-11-03T13:27:57.960Z,1009.30
2022-11-03T13:28:58.004Z,1009.22
2022-11-03T13:29:57.947Z,1009.26
2022-11-03T13:30:57.948Z,1009.19
2022-11-03T13:31:57.940Z,1009.18
2022-11-03T13:32:57.911Z,1009.10
2022-11-03T13:33:57.911Z,1009.10
2022-11-03T13:34:57.938Z,1009.08
2022-11-03T13:35:57.963Z,1009.03
2022-11-03T13:36:57.870Z,1009.02
2022-11-03T13:37:57.842Z,1009.10
2022-11-03T13:38:57.865Z,1008.98
2022-11-03T13:39:57.848Z,1008.95
2022-11-03T13:41:03.644Z,1008.91
2022-11-03T13:41:58.823Z,1008.89
2022-11-03T13:43:05.821Z,1008.85
2022-11-03T13:43:57.930Z,1008.84
2022-11-03T13:44:57.851Z,1008.82
2022-11-03T13:46:05.582Z,1008.83
2022-11-03T13:46:57.871Z,1008.83
2022-11-03T13:48:47.500Z,1008.76
2022-11-03T13:51:09.216Z,1008.75
2022-11-03T13:52:16.717Z,1008.71
2022-11-03T13:56:12.802Z,1008.66
2022-11-03T13:59:25.965Z,1008.59
2022-11-03T14:00:09.992Z,1008.48
2022-11-03T14:01:09.095Z,1008.48
2022-11-03T14:06:19.287Z,1008.53
2022-11-03T14:07:29.016Z,1008.50
2022-11-03T14:08:26.874Z,1008.47
2022-11-03T14:09:19.282Z,1008.45
2022-11-03T14:10:19.285Z,1008.44
2022-11-03T14:11:19.209Z,1008.51
2022-11-03T14:12:19.199Z,1008.53
2022-11-03T14:13:29.096Z,1008.55
2022-11-03T14:14:19.263Z,1008.56
2022-11-03T14:15:26.851Z,1008.58
2022-11-03T14:16:26.841Z,1008.54
2022-11-03T14:17:19.193Z,1008.60
2022-11-03T14:18:19.165Z,1008.55
2022-11-03T14:19:19.125Z,1008.51
2022-11-03T14:20:19.184Z,1008.59
2022-11-03T14:21:19.137Z,1008.55
2022-11-03T14:22:19.103Z,1008.50
2022-11-03T14:23:19.093Z,1008.49
2022-11-03T14:24:19.142Z,1008.49
2022-11-03T14:25:19.049Z,1008.52
2022-11-03T14:26:39.999Z,1008.48
2022-11-03T14:27:20.190Z,1008.42
2022-11-03T14:28:25.869Z,1008.38
2022-11-03T14:29:20.003Z,1008.38
2022-11-03T14:30:18.987Z,1008.42
2022-11-03T14:31:18.980Z,1008.32
2022-11-03T14:32:19.004Z,1008.27
2022-11-03T14:33:18.966Z,1008.31
2022-11-03T14:34:19.080Z,1008.30
2022-11-03T14:35:18.939Z,1008.26
2022-11-03T14:36:18.923Z,1008.17
2022-11-03T14:37:27.607Z,1008.14
2022-11-03T14:38:18.949Z,1008.15
2022-11-03T14:39:18.909Z,1008.15
2022-11-03T14:40:18.930Z,1008.03
2022-11-03T14:41:27.496Z,1008.14
2022-11-03T14:42:26.554Z,1008.12
2022-11-03T14:43:18.957Z,1008.08
2022-11-03T14:44:28.599Z,1008.10
2022-11-03T14:45:28.876Z,1008.09
2022-11-03T14:46:27.508Z,1008.04
2022-11-03T14:47:29.267Z,1008.00
2022-11-03T14:49:29.252Z,1007.95
2022-11-03T14:51:42.550Z,1007.86
2022-11-03T14:52:51.855Z,1007.84
2022-11-03T14:53:42.447Z,1007.78
2022-11-03T14:54:42.412Z,1007.81
2022-11-03T14:55:42.424Z,1007.71
2022-11-03T14:56:42.414Z,1007.70
2022-11-03T14:57:46.585Z,1007.75
2022-11-03T14:58:42.887Z,1007.73
2022-11-03T14:59:42.668Z,1007.77
2022-11-03T15:00:45.126Z,1007.72
2022-11-03T15:01:42.492Z,1007.74
2022-11-03T15:02:45.973Z,1007.77
2022-11-03T15:03:43.193Z,1007.68
2022-11-03T15:04:42.771Z,1007.68
2022-11-03T15:05:43.651Z,1007.63
2022-11-03T15:06:49.345Z,1007.70
2022-11-03T15:07:43.642Z,1007.62
2022-11-03T15:08:43.052Z,1007.72
2022-11-03T15:09:42.468Z,1007.71
2022-11-03T15:10:57.310Z,1007.70
2022-11-03T15:11:42.284Z,1007.62
2022-11-03T15:12:42.289Z,1007.60
2022-11-03T15:13:45.976Z,1007.62
2022-11-03T15:14:43.261Z,1007.59
2022-11-03T15:15:42.430Z,1007.53
2022-11-03T15:16:43.955Z,1007.51
2022-11-03T15:17:42.681Z,1007.56
2022-11-03T15:18:44.451Z,1007.49
2022-11-03T15:19:42.160Z,1007.44
2022-11-03T15:20:42.232Z,1007.46
2022-11-03T15:21:42.329Z,1007.40
2022-11-03T15:25:43.110Z,1007.33
2022-11-03T15:26:42.112Z,1007.29
2022-11-03T15:27:42.078Z,1007.30
2022-11-03T15:28:54.306Z,1007.29
2022-11-03T15:29:42.112Z,1007.34
2022-11-03T15:31:53.563Z,1007.29
2022-11-03T15:32:53.627Z,1007.25
2022-11-03T15:33:53.541Z,1007.29
2022-11-03T15:34:53.486Z,1007.25
2022-11-03T15:35:53.506Z,1007.22
2022-11-03T15:36:53.412Z,1007.32
2022-11-03T15:37:53.385Z,1007.28
2022-11-03T15:38:53.472Z,1007.25
2022-11-03T15:39:57.184Z,1007.26
2022-11-03T15:40:54.356Z,1007.26
2022-11-03T15:41:53.346Z,1007.20
2022-11-03T15:42:53.371Z,1007.12
2022-11-03T15:43:53.336Z,1007.06
2022-11-03T15:44:53.333Z,1007.00
2022-11-03T15:45:53.303Z,1006.99
2022-11-03T15:46:55.302Z,1006.96
2022-11-03T15:49:11.051Z,1006.90
2022-11-03T15:51:22.172Z,1006.73
2022-11-03T15:52:33.510Z,1006.69
2022-11-03T15:54:41.301Z,1006.66
2022-11-03T15:56:47.355Z,1006.64
2022-11-03T16:00:33.138Z,1006.52
2022-11-03T16:01:35.089Z,1006.45
2022-11-03T16:04:56.721Z,1006.52
2022-11-03T16:07:46.621Z,1006.44
2022-11-03T16:11:06.626Z,1006.36
2022-11-03T16:12:06.662Z,1006.35
2022-11-03T16:13:06.498Z,1006.31
2022-11-03T16:14:06.448Z,1006.30
2022-11-03T16:15:06.453Z,1006.30
2022-11-03T16:16:15.184Z,1006.24
2022-11-03T16:18:46.151Z,1006.31
2022-11-03T16:20:55.134Z,1006.19
2022-11-03T16:23:06.343Z,1006.04
2022-11-03T16:24:14.525Z,1006.02
2022-11-03T16:25:08.871Z,1006.04
2022-11-03T16:27:17.449Z,1006.05
2022-11-03T16:28:17.411Z,1006.00
2022-11-03T16:29:17.433Z,1006.06
2022-11-03T16:30:17.421Z,1006.02
2022-11-03T16:31:17.419Z,1006.05
2022-11-03T16:32:17.385Z,1006.02
2022-11-03T16:33:17.385Z,1005.99
2022-11-03T16:34:17.396Z,1006.05
2022-11-03T16:35:17.341Z,1006.00
2022-11-03T16:36:17.352Z,1005.93
2022-11-03T16:37:17.332Z,1005.91
2022-11-03T16:38:17.325Z,1005.86
2022-11-03T16:39:17.313Z,1005.88
2022-11-03T16:40:19.682Z,1005.85
2022-11-03T16:41:17.330Z,1005.81
2022-11-03T16:42:17.289Z,1005.84
2022-11-03T16:43:17.273Z,1005.85
2022-11-03T16:44:17.243Z,1005.84
2022-11-03T16:45:17.258Z,1005.83
2022-11-03T16:46:25.828Z,1005.85
2022-11-03T16:47:17.381Z,1005.80
2022-11-03T16:48:17.237Z,1005.82
2022-11-03T16:49:17.238Z,1005.79
2022-11-03T16:50:17.204Z,1005.74
2022-11-03T16:51:17.192Z,1005.73
2022-11-03T16:52:17.181Z,1005.71
2022-11-03T16:53:17.168Z,1005.73
2022-11-03T16:54:17.196Z,1005.67
2022-11-03T16:55:25.032Z,1005.67
2022-11-03T16:56:24.996Z,1005.65
2022-11-03T16:57:17.227Z,1005.61
2022-11-03T16:58:17.118Z,1005.58
2022-11-03T16:59:17.104Z,1005.58
2022-11-03T17:00:17.147Z,1005.57
2022-11-03T17:01:17.184Z,1005.54
2022-11-03T17:02:17.130Z,1005.51
2022-11-03T17:03:17.062Z,1005.56
2022-11-03T17:04:28.228Z,1005.63
2022-11-03T17:05:17.060Z,1005.57
2022-11-03T17:06:17.006Z,1005.56
2022-11-03T17:07:17.050Z,1005.56
2022-11-03T17:08:46.720Z,1005.61
2022-11-03T17:09:17.974Z,1005.57
2022-11-03T17:10:17.250Z,1005.54
2022-11-03T17:11:16.947Z,1005.52
2022-11-03T17:12:17.025Z,1005.50
2022-11-03T17:13:17.318Z,1005.48
2022-11-03T17:14:16.917Z,1005.42
2022-11-03T17:15:16.914Z,1005.40
2022-11-03T17:16:16.909Z,1005.44
2022-11-03T17:17:16.911Z,1005.42
2022-11-03T17:18:16.901Z,1005.43
2022-11-03T17:19:16.865Z,1005.38
2022-11-03T17:20:17.014Z,1005.36
2022-11-03T17:21:16.855Z,1005.32
2022-11-03T17:22:16.860Z,1005.34
2022-11-03T17:23:16.828Z,1005.39
2022-11-03T17:24:16.900Z,1005.33
2022-11-03T17:25:17.427Z,1005.42
2022-11-03T17:26:16.898Z,1005.38
2022-11-03T17:27:16.811Z,1005.35
2022-11-03T17:28:16.779Z,1005.36
2022-11-03T17:29:16.852Z,1005.31
2022-11-03T17:30:16.835Z,1005.33
2022-11-03T17:31:17.252Z,1005.34
2022-11-03T17:32:31.466Z,1005.33
2022-11-03T17:33:32.240Z,1005.28
2022-11-03T17:34:16.715Z,1005.27
2022-11-03T17:35:16.752Z,1005.30
2022-11-03T17:36:25.563Z,1005.23
2022-11-03T17:37:24.390Z,1005.20
2022-11-03T17:38:24.909Z,1005.25
2022-11-03T17:39:16.756Z,1005.18
2022-11-03T17:40:16.705Z,1005.10
2022-11-03T17:41:19.002Z,1005.18
2022-11-03T17:42:16.654Z,1005.08
2022-11-03T17:43:16.617Z,1005.09
2022-11-03T17:44:26.467Z,1005.02
2022-11-03T17:45:16.649Z,1005.11
2022-11-03T17:46:16.765Z,1005.00
2022-11-03T17:47:16.704Z,1005.08
2022-11-03T17:48:16.733Z,1005.02
2022-11-03T17:49:16.673Z,1004.98
2022-11-03T17:50:16.661Z,1004.92
2022-11-03T17:51:16.682Z,1004.86
2022-11-03T17:52:16.916Z,1004.90
2022-11-03T17:53:16.608Z,1004.87
2022-11-03T17:54:16.509Z,1004.87
2022-11-03T17:55:17.356Z,1004.84
2022-11-03T17:56:30.834Z,1004.83
2022-11-03T17:57:16.473Z,1004.68
2022-11-03T17:58:16.529Z,1004.68
2022-11-03T17:59:16.465Z,1004.66
2022-11-03T18:00:16.454Z,1004.63
2022-11-03T18:01:16.562Z,1004.60
2022-11-03T18:02:16.499Z,1004.53
2022-11-03T18:03:16.396Z,1004.52
2022-11-03T18:04:16.431Z,1004.53
2022-11-03T18:05:20.201Z,1004.56
2022-11-03T18:06:17.366Z,1004.53
2022-11-03T18:07:16.376Z,1004.49
2022-11-03T18:08:16.361Z,1004.50
2022-11-03T18:09:16.329Z,1004.45
2022-11-03T18:10:16.335Z,1004.48
2022-11-03T18:11:16.301Z,1004.39
2022-11-03T18:12:16.300Z,1004.43
2022-11-03T18:13:16.296Z,1004.44
2022-11-03T18:14:16.325Z,1004.43
2022-11-03T18:15:16.591Z,1004.33
2022-11-03T18:16:23.948Z,1004.30
2022-11-03T18:17:16.256Z,1004.26
2022-11-03T18:18:16.317Z,1004.20
2022-11-03T18:19:16.246Z,1004.16
2022-11-03T18:20:16.235Z,1004.10
2022-11-03T18:21:16.209Z,1004.10
2022-11-03T18:22:16.212Z,1004.06
2022-11-03T18:23:16.282Z,1004.04
2022-11-03T18:24:16.183Z,1003.99
2022-11-03T18:25:16.207Z,1003.98
2022-11-03T18:26:16.467Z,1004.01
2022-11-03T18:27:18.326Z,1003.95
2022-11-03T18:28:17.177Z,1003.86
2022-11-03T18:29:16.274Z,1003.88
2022-11-03T18:30:16.313Z,1003.88
2022-11-03T18:31:16.295Z,1003.83
2022-11-03T18:32:16.123Z,1003.80
2022-11-03T18:33:16.457Z,1003.74
2022-11-03T18:34:16.130Z,1003.64
2022-11-03T18:35:16.186Z,1003.66
2022-11-03T18:36:16.214Z,1003.68
2022-11-03T18:37:16.087Z,1003.62
2022-11-03T18:38:16.063Z,1003.55
2022-11-03T18:39:16.058Z,1003.59
2022-11-03T18:40:16.103Z,1003.55
2022-11-03T18:41:16.387Z,1003.56
2022-11-03T18:42:16.085Z,1003.53
2022-11-03T18:43:15.988Z,1003.42
2022-11-03T18:44:16.058Z,1003.52
2022-11-03T18:45:28.198Z,1003.43
2022-11-03T18:46:16.105Z,1003.46
2022-11-03T18:47:16.030Z,1003.48
2022-11-03T18:48:20.110Z,1003.37
2022-11-03T18:49:15.989Z,1003.39
2022-11-03T18:50:16.038Z,1003.40
2022-11-03T18:51:16.023Z,1003.40
2022-11-03T18:52:17.439Z,1003.31
2022-11-03T18:54:34.466Z,1003.26
2022-11-03T18:55:34.278Z,1003.31
2022-11-03T18:57:35.335Z,1003.28
2022-11-03T18:59:44.955Z,1003.30
2022-11-03T19:00:44.650Z,1003.24
2022-11-03T19:01:44.846Z,1003.24
2022-11-03T19:02:44.647Z,1003.30
2022-11-03T19:03:44.521Z,1003.38
2022-11-03T19:04:44.518Z,1003.41
2022-11-03T19:05:44.537Z,1003.41
2022-11-03T19:06:44.481Z,1003.43
2022-11-03T19:07:44.464Z,1003.42
2022-11-03T19:08:44.470Z,1003.30
2022-11-03T19:09:44.525Z,1003.34
2022-11-03T19:10:44.470Z,1003.34
2022-11-03T19:11:44.493Z,1003.32
2022-11-03T19:12:44.604Z,1003.25
2022-11-03T19:13:44.431Z,1003.22
2022-11-03T19:14:44.386Z,1003.26
2022-11-03T19:15:44.461Z,1003.24
2022-11-03T19:17:01.977Z,1003.20
2022-11-03T19:17:45.391Z,1003.27
2022-11-03T19:18:44.464Z,1003.16
2022-11-03T19:19:44.427Z,1003.09
2022-11-03T19:20:44.365Z,1003.07
2022-11-03T19:21:44.408Z,1003.10
2022-11-03T19:22:44.324Z,1003.13
2022-11-03T19:23:47.853Z,1003.10
2022-11-03T19:24:44.352Z,1003.12
2022-11-03T19:25:44.315Z,1003.08
2022-11-03T19:26:44.299Z,1003.09
2022-11-03T19:27:51.863Z,1003.04
2022-11-03T19:28:44.298Z,1003.02
2022-11-03T19:29:44.313Z,1003.05
2022-11-03T19:30:44.231Z,1003.03
2022-11-03T19:31:44.242Z,1003.04
2022-11-03T19:32:44.242Z,1003.14
2022-11-03T19:33:44.218Z,1003.06
2022-11-03T19:34:44.189Z,1002.98
2022-11-03T19:35:44.204Z,1003.01
2022-11-03T19:36:44.277Z,1003.02
2022-11-03T19:37:44.283Z,1002.87
2022-11-03T19:38:44.169Z,1002.86
2022-11-03T19:39:44.158Z,1002.78
2022-11-03T19:40:44.149Z,1002.65
2022-11-03T19:41:44.127Z,1002.50
2022-11-03T19:42:44.107Z,1002.31
2022-11-03T19:43:44.130Z,1002.26
2022-11-03T19:44:44.098Z,1002.29
2022-11-03T19:45:44.086Z,1002.26
2022-11-03T19:46:44.067Z,1002.34
2022-11-03T19:47:57.683Z,1002.37
2022-11-03T19:48:45.065Z,1002.31
2022-11-03T19:49:44.084Z,1002.35
2022-11-03T19:50:44.011Z,1002.25
2022-11-03T19:51:53.670Z,1002.25
2022-11-03T19:52:44.065Z,1002.26
2022-11-03T19:53:47.139Z,1002.32
2022-11-03T19:54:44.036Z,1002.34
2022-11-03T19:55:54.643Z,1002.26
2022-11-03T19:56:44.089Z,1002.38
2022-11-03T19:58:55.743Z,1002.35
2022-11-03T19:59:55.647Z,1002.37
2022-11-03T20:02:09.573Z,1002.33
2022-11-03T20:03:17.480Z,1002.34
2022-11-03T20:05:02.044Z,1002.29
2022-11-03T20:06:09.650Z,1002.33
2022-11-03T20:07:02.088Z,1002.23
2022-11-03T20:08:02.021Z,1002.33
2022-11-03T20:09:02.008Z,1002.23
2022-11-03T20:10:10.582Z,1002.18
2022-11-03T20:11:10.657Z,1002.29
2022-11-03T20:12:10.658Z,1002.24
2022-11-03T20:13:13.874Z,1002.24
2022-11-03T20:14:01.986Z,1002.26
2022-11-03T20:15:12.065Z,1002.16
2022-11-03T20:16:01.902Z,1002.09
2022-11-03T20:17:02.024Z,1002.07
2022-11-03T20:18:01.896Z,1002.08
2022-11-03T20:19:01.934Z,1002.11
2022-11-03T20:20:12.572Z,1002.09
2022-11-03T20:21:01.883Z,1002.07
2022-11-03T20:22:10.062Z,1002.06
2022-11-03T20:24:14.305Z,1002.10
2022-11-03T20:26:25.687Z,1002.08
2022-11-03T20:27:35.120Z,1002.02
2022-11-03T20:28:25.631Z,1002.06
2022-11-03T20:29:26.955Z,1002.12
2022-11-03T20:30:25.580Z,1002.09
2022-11-03T20:31:25.571Z,1001.98
2022-11-03T20:32:25.476Z,1002.12
2022-11-03T20:35:48.295Z,1002.06
2022-11-03T20:36:48.285Z,1002.13
2022-11-03T20:37:48.180Z,1001.99
2022-11-03T20:38:48.174Z,1002.00
2022-11-03T20:39:48.162Z,1002.00
2022-11-03T20:40:48.151Z,1001.97
2022-11-03T20:41:48.199Z,1001.93
2022-11-03T20:42:48.171Z,1001.90
2022-11-03T20:43:48.114Z,1002.02
2022-11-03T20:44:48.108Z,1001.86
2022-11-03T20:45:48.088Z,1001.90
2022-11-03T20:46:48.128Z,1001.92
2022-11-03T20:47:56.846Z,1001.91
2022-11-03T20:48:56.036Z,1001.90
2022-11-03T20:49:48.121Z,1001.95
2022-11-03T20:50:48.044Z,1001.99
2022-11-03T20:51:48.155Z,1001.91
2022-11-03T20:52:48.030Z,1001.96
2022-11-03T20:53:48.086Z,1001.94
2022-11-03T20:54:48.008Z,1001.86
2022-11-03T20:55:48.023Z,1001.81
2022-11-03T20:56:48.039Z,1001.92
2022-11-03T20:57:48.043Z,1001.84
2022-11-03T20:58:48.281Z,1001.83
2022-11-03T20:59:47.959Z,1001.79
2022-11-03T21:00:48.145Z,1001.90
2022-11-03T21:01:58.944Z,1001.96
2022-11-03T21:02:59.105Z,1001.93
2022-11-03T21:04:03.362Z,1001.91
2022-11-03T21:05:58.469Z,1001.88
2022-11-03T21:08:10.744Z,1001.81
2022-11-03T21:09:10.639Z,1001.82
2022-11-03T21:10:23.702Z,1001.79
2022-11-03T21:11:10.628Z,1001.79
2022-11-03T21:13:23.988Z,1001.73
2022-11-03T21:14:36.708Z,1001.75
2022-11-03T21:16:35.565Z,1001.72
2022-11-03T21:19:57.958Z,1001.69
2022-11-03T21:21:10.930Z,1001.63
2022-11-03T21:25:48.426Z,1001.49
2022-11-03T21:28:26.468Z,1001.37
2022-11-03T21:30:38.327Z,1001.40
2022-11-03T21:32:50.982Z,1001.41
2022-11-03T21:34:00.244Z,1001.40
2022-11-03T21:36:14.742Z,1001.31
2022-11-03T21:38:27.239Z,1001.28
2022-11-03T21:39:37.058Z,1001.25
2022-11-03T21:40:36.820Z,1001.22
2022-11-03T21:41:35.889Z,1001.21
2022-11-03T21:43:39.635Z,1001.24
2022-11-03T21:44:39.543Z,1001.31
2022-11-03T21:45:51.226Z,1001.35
2022-11-03T21:47:31.985Z,1001.39
2022-11-03T21:49:45.290Z,1001.36
2022-11-03T21:50:53.848Z,1001.41
2022-11-03T21:53:00.535Z,1001.44